sensor_id;sensor_type;location;lat;lon;timestamp;P1;durP1;ratioP1;P2;durP2;ratioP2
3627;SDS011;1830;49.000;12.074;2022-11-20T00:04:24;58.27;;;31.30;;
3627;SDS011;1830;49.000;12.074;2022-11-20T00:06:51;58.40;;;32.17;;
3627;SDS011;1830;49.000;12.074;2022-11-20T00:09:18;60.80;;;33.17;;
3627;SDS011;1830;49.000;12.074;2022-11-20T00:11:45;58.73;;;32.27;;
3627;SDS011;1830;49.000;12.074;2022-11-20T00:14:12;60.60;;;32.40;;
3627;SDS011;1830;49.000;12.074;2022-11-20T00:16:39;53.97;;;31.70;;
3627;SDS011;1830;49.000;12.074;2022-11-20T00:19:06;62.10;;;32.87;;
3627;SDS011;1830;49.000;12.074;2022-11-20T00:21:34;63.43;;;33.43;;
3627;SDS011;1830;49.000;12.074;2022-11-20T00:24:01;57.83;;;33.57;;
3627;SDS011;1830;49.000;12.074;2022-11-20T00:26:28;62.17;;;33.10;;
3627;SDS011;1830;49.000;12.074;2022-11-20T00:28:56;52.70;;;31.17;;
3627;SDS011;1830;49.000;12.074;2022-11-20T00:31:24;60.60;;;32.50;;
3627;SDS011;1830;49.000;12.074;2022-11-20T00:33:52;57.63;;;32.73;;
3627;SDS011;1830;49.000;12.074;2022-11-20T00:36:20;62.47;;;33.93;;
3627;SDS011;1830;49.000;12.074;2022-11-20T00:38:52;60.03;;;33.07;;
3627;SDS011;1830;49.000;12.074;2022-11-20T00:41:19;68.30;;;35.40;;
3627;SDS011;1830;49.000;12.074;2022-11-20T00:43:47;54.73;;;31.00;;
3627;SDS011;1830;49.000;12.074;2022-11-20T00:46:15;58.27;;;31.10;;
3627;SDS011;1830;49.000;12.074;2022-11-20T00:48:42;64.90;;;33.47;;
3627;SDS011;1830;49.000;12.074;2022-11-20T00:51:10;61.03;;;32.17;;
3627;SDS011;1830;49.000;12.074;2022-11-20T00:53:39;64.73;;;33.33;;
3627;SDS011;1830;49.000;12.074;2022-11-20T00:56:09;62.33;;;32.30;;
3627;SDS011;1830;49.000;12.074;2022-11-20T00:58:38;62.20;;;32.20;;
3627;SDS011;1830;49.000;12.074;2022-11-20T01:01:06;54.33;;;29.77;;
3627;SDS011;1830;49.000;12.074;2022-11-20T01:03:34;68.20;;;34.67;;
3627;SDS011;1830;49.000;12.074;2022-11-20T01:06:03;60.20;;;33.40;;
3627;SDS011;1830;49.000;12.074;2022-11-20T01:08:34;64.03;;;33.30;;
3627;SDS011;1830;49.000;12.074;2022-11-20T01:11:01;62.50;;;34.10;;
3627;SDS011;1830;49.000;12.074;2022-11-20T01:13:31;59.07;;;31.20;;
3627;SDS011;1830;49.000;12.074;2022-11-20T01:16:05;59.07;;;31.20;;
3627;SDS011;1830;49.000;12.074;2022-11-20T01:18:33;57.80;;;30.13;;
3627;SDS011;1830;49.000;12.074;2022-11-20T01:21:01;52.43;;;28.50;;
3627;SDS011;1830;49.000;12.074;2022-11-20T01:23:31;57.90;;;30.53;;
3627;SDS011;1830;49.000;12.074;2022-11-20T01:26:00;61.23;;;31.50;;
3627;SDS011;1830;49.000;12.074;2022-11-20T01:28:28;58.77;;;30.57;;
3627;SDS011;1830;49.000;12.074;2022-11-20T01:30:56;53.40;;;29.53;;
3627;SDS011;1830;49.000;12.074;2022-11-20T01:33:24;51.50;;;29.20;;
3627;SDS011;1830;49.000;12.074;2022-11-20T01:35:51;49.77;;;28.07;;
3627;SDS011;1830;49.000;12.074;2022-11-20T01:38:18;49.77;;;28.03;;
3627;SDS011;1830;49.000;12.074;2022-11-20T01:40:53;48.57;;;27.90;;
3627;SDS011;1830;49.000;12.074;2022-11-20T01:43:20;51.03;;;28.10;;
3627;SDS011;1830;49.000;12.074;2022-11-20T01:45:58;50.47;;;28.20;;
3627;SDS011;1830;49.000;12.074;2022-11-20T01:48:32;52.87;;;27.87;;
3627;SDS011;1830;49.000;12.074;2022-11-20T01:51:05;50.10;;;27.73;;
3627;SDS011;1830;49.000;12.074;2022-11-20T01:53:37;47.30;;;25.90;;
3627;SDS011;1830;49.000;12.074;2022-11-20T01:56:05;44.50;;;26.10;;
3627;SDS011;1830;49.000;12.074;2022-11-20T01:58:37;47.30;;;27.50;;
3627;SDS011;1830;49.000;12.074;2022-11-20T02:01:11;46.83;;;26.77;;
3627;SDS011;1830;49.000;12.074;2022-11-20T02:03:41;48.53;;;27.10;;
3627;SDS011;1830;49.000;12.074;2022-11-20T02:06:11;46.20;;;27.40;;
3627;SDS011;1830;49.000;12.074;2022-11-20T02:08:42;48.00;;;26.13;;
3627;SDS011;1830;49.000;12.074;2022-11-20T02:11:09;49.50;;;27.60;;
3627;SDS011;1830;49.000;12.074;2022-11-20T02:13:37;49.03;;;26.83;;
3627;SDS011;1830;49.000;12.074;2022-11-20T02:16:18;45.40;;;25.90;;
3627;SDS011;1830;49.000;12.074;2022-11-20T02:18:47;47.67;;;27.60;;
3627;SDS011;1830;49.000;12.074;2022-11-20T02:21:23;56.03;;;29.10;;
3627;SDS011;1830;49.000;12.074;2022-11-20T02:23:58;50.33;;;27.30;;
3627;SDS011;1830;49.000;12.074;2022-11-20T02:26:28;48.80;;;27.43;;
3627;SDS011;1830;49.000;12.074;2022-11-20T02:28:57;49.30;;;28.53;;
3627;SDS011;1830;49.000;12.074;2022-11-20T02:31:26;55.07;;;27.50;;
3627;SDS011;1830;49.000;12.074;2022-11-20T02:33:56;57.90;;;29.57;;
3627;SDS011;1830;49.000;12.074;2022-11-20T02:36:24;50.63;;;27.47;;
3627;SDS011;1830;49.000;12.074;2022-11-20T02:38:53;48.57;;;27.30;;
3627;SDS011;1830;49.000;12.074;2022-11-20T02:41:21;53.87;;;28.63;;
3627;SDS011;1830;49.000;12.074;2022-11-20T02:43:56;49.53;;;28.30;;
3627;SDS011;1830;49.000;12.074;2022-11-20T02:46:23;59.67;;;28.67;;
3627;SDS011;1830;49.000;12.074;2022-11-20T02:48:50;50.07;;;27.30;;
3627;SDS011;1830;49.000;12.074;2022-11-20T02:51:17;54.47;;;29.00;;
3627;SDS011;1830;49.000;12.074;2022-11-20T02:53:44;47.20;;;26.73;;
3627;SDS011;1830;49.000;12.074;2022-11-20T02:56:11;45.67;;;25.90;;
3627;SDS011;1830;49.000;12.074;2022-11-20T02:58:39;48.77;;;27.27;;
3627;SDS011;1830;49.000;12.074;2022-11-20T03:01:06;49.03;;;26.70;;
3627;SDS011;1830;49.000;12.074;2022-11-20T03:03:33;47.27;;;26.73;;
3627;SDS011;1830;49.000;12.074;2022-11-20T03:05:59;49.07;;;28.20;;
3627;SDS011;1830;49.000;12.074;2022-11-20T03:08:26;59.00;;;27.47;;
3627;SDS011;1830;49.000;12.074;2022-11-20T03:10:53;56.27;;;28.80;;
3627;SDS011;1830;49.000;12.074;2022-11-20T03:13:20;52.97;;;28.70;;
3627;SDS011;1830;49.000;12.074;2022-11-20T03:15:48;59.20;;;28.83;;
3627;SDS011;1830;49.000;12.074;2022-11-20T03:18:15;60.83;;;27.87;;
3627;SDS011;1830;49.000;12.074;2022-11-20T03:20:42;49.57;;;28.80;;
3627;SDS011;1830;49.000;12.074;2022-11-20T03:23:10;55.13;;;27.83;;
3627;SDS011;1830;49.000;12.074;2022-11-20T03:25:37;49.17;;;27.83;;
3627;SDS011;1830;49.000;12.074;2022-11-20T03:28:05;50.97;;;26.73;;
3627;SDS011;1830;49.000;12.074;2022-11-20T03:30:31;51.37;;;28.00;;
3627;SDS011;1830;49.000;12.074;2022-11-20T03:33:00;55.27;;;27.87;;
3627;SDS011;1830;49.000;12.074;2022-11-20T03:35:29;53.37;;;28.20;;
3627;SDS011;1830;49.000;12.074;2022-11-20T03:37:57;49.47;;;27.77;;
3627;SDS011;1830;49.000;12.074;2022-11-20T03:40:28;50.30;;;28.23;;
3627;SDS011;1830;49.000;12.074;2022-11-20T03:42:56;52.73;;;28.53;;
3627;SDS011;1830;49.000;12.074;2022-11-20T03:45:23;61.33;;;31.47;;
3627;SDS011;1830;49.000;12.074;2022-11-20T03:47:50;53.60;;;28.60;;
3627;SDS011;1830;49.000;12.074;2022-11-20T03:50:19;51.23;;;27.17;;
3627;SDS011;1830;49.000;12.074;2022-11-20T03:52:45;53.13;;;27.17;;
3627;SDS011;1830;49.000;12.074;2022-11-20T03:55:12;50.57;;;27.70;;
3627;SDS011;1830;49.000;12.074;2022-11-20T03:57:39;54.33;;;28.17;;
3627;SDS011;1830;49.000;12.074;2022-11-20T04:00:06;51.90;;;27.27;;
3627;SDS011;1830;49.000;12.074;2022-11-20T04:02:34;52.53;;;27.60;;
3627;SDS011;1830;49.000;12.074;2022-11-20T04:05:01;53.27;;;28.07;;
3627;SDS011;1830;49.000;12.074;2022-11-20T04:07:29;51.47;;;28.87;;
3627;SDS011;1830;49.000;12.074;2022-11-20T04:10:07;49.80;;;27.70;;
3627;SDS011;1830;49.000;12.074;2022-11-20T04:12:34;53.97;;;28.70;;
3627;SDS011;1830;49.000;12.074;2022-11-20T04:15:00;53.57;;;28.53;;
3627;SDS011;1830;49.000;12.074;2022-11-20T04:17:27;53.37;;;27.40;;
3627;SDS011;1830;49.000;12.074;2022-11-20T04:19:54;58.27;;;31.30;;
3627;SDS011;1830;49.000;12.074;2022-11-20T04:22:21;57.93;;;28.50;;
3627;SDS011;1830;49.000;12.074;2022-11-20T04:24:49;61.27;;;30.33;;
3627;SDS011;1830;49.000;12.074;2022-11-20T04:27:16;53.93;;;29.07;;
3627;SDS011;1830;49.000;12.074;2022-11-20T04:29:43;51.57;;;28.67;;
3627;SDS011;1830;49.000;12.074;2022-11-20T04:32:10;52.17;;;29.50;;
3627;SDS011;1830;49.000;12.074;2022-11-20T04:34:36;57.70;;;30.30;;
3627;SDS011;1830;49.000;12.074;2022-11-20T04:37:03;53.33;;;29.10;;
3627;SDS011;1830;49.000;12.074;2022-11-20T04:39:30;55.83;;;30.47;;
3627;SDS011;1830;49.000;12.074;2022-11-20T04:41:58;56.63;;;30.50;;
3627;SDS011;1830;49.000;12.074;2022-11-20T04:44:43;52.23;;;29.43;;
3627;SDS011;1830;49.000;12.074;2022-11-20T04:47:10;53.87;;;28.03;;
3627;SDS011;1830;49.000;12.074;2022-11-20T04:49:37;54.40;;;29.03;;
3627;SDS011;1830;49.000;12.074;2022-11-20T04:52:03;57.70;;;29.03;;
3627;SDS011;1830;49.000;12.074;2022-11-20T04:54:30;54.80;;;30.10;;
3627;SDS011;1830;49.000;12.074;2022-11-20T04:56:59;59.30;;;30.97;;
3627;SDS011;1830;49.000;12.074;2022-11-20T04:59:26;55.47;;;30.10;;
3627;SDS011;1830;49.000;12.074;2022-11-20T05:01:58;54.40;;;28.70;;
3627;SDS011;1830;49.000;12.074;2022-11-20T05:04:25;52.10;;;28.60;;
3627;SDS011;1830;49.000;12.074;2022-11-20T05:06:52;54.83;;;28.27;;
3627;SDS011;1830;49.000;12.074;2022-11-20T05:09:19;53.33;;;27.77;;
3627;SDS011;1830;49.000;12.074;2022-11-20T05:11:45;54.97;;;27.43;;
3627;SDS011;1830;49.000;12.074;2022-11-20T05:14:14;55.10;;;27.23;;
3627;SDS011;1830;49.000;12.074;2022-11-20T05:16:41;61.10;;;29.50;;
3627;SDS011;1830;49.000;12.074;2022-11-20T05:19:08;54.73;;;27.67;;
3627;SDS011;1830;49.000;12.074;2022-11-20T05:21:35;58.80;;;30.27;;
3627;SDS011;1830;49.000;12.074;2022-11-20T05:24:02;53.40;;;29.20;;
3627;SDS011;1830;49.000;12.074;2022-11-20T05:26:29;56.10;;;28.30;;
3627;SDS011;1830;49.000;12.074;2022-11-20T05:28:56;52.17;;;27.87;;
3627;SDS011;1830;49.000;12.074;2022-11-20T05:31:24;56.13;;;28.83;;
3627;SDS011;1830;49.000;12.074;2022-11-20T05:33:51;51.20;;;28.20;;
3627;SDS011;1830;49.000;12.074;2022-11-20T05:36:18;57.00;;;30.90;;
3627;SDS011;1830;49.000;12.074;2022-11-20T05:38:45;48.07;;;26.20;;
3627;SDS011;1830;49.000;12.074;2022-11-20T05:41:13;58.37;;;29.40;;
3627;SDS011;1830;49.000;12.074;2022-11-20T05:43:41;52.20;;;28.00;;
3627;SDS011;1830;49.000;12.074;2022-11-20T05:46:10;61.63;;;29.70;;
3627;SDS011;1830;49.000;12.074;2022-11-20T05:48:41;54.60;;;28.87;;
3627;SDS011;1830;49.000;12.074;2022-11-20T05:51:09;61.63;;;29.40;;
3627;SDS011;1830;49.000;12.074;2022-11-20T05:53:37;62.50;;;30.37;;
3627;SDS011;1830;49.000;12.074;2022-11-20T05:56:05;56.33;;;28.90;;
3627;SDS011;1830;49.000;12.074;2022-11-20T12:05:16;13.20;;;9.00;;
3627;SDS011;1830;49.000;12.074;2022-11-20T12:07:46;20.77;;;12.03;;
3627;SDS011;1830;49.000;12.074;2022-11-20T12:10:20;18.60;;;11.73;;
3627;SDS011;1830;49.000;12.074;2022-11-20T12:12:50;11.97;;;9.20;;
3627;SDS011;1830;49.000;12.074;2022-11-20T12:15:23;10.83;;;8.70;;
3627;SDS011;1830;49.000;12.074;2022-11-20T12:17:54;12.53;;;7.10;;
3627;SDS011;1830;49.000;12.074;2022-11-20T12:20:24;8.73;;;6.07;;
3627;SDS011;1830;49.000;12.074;2022-11-20T12:22:56;8.60;;;6.03;;
3627;SDS011;1830;49.000;12.074;2022-11-20T12:25:36;10.97;;;7.37;;
3627;SDS011;1830;49.000;12.074;2022-11-20T12:28:12;9.00;;;5.93;;
3627;SDS011;1830;49.000;12.074;2022-11-20T12:31:10;9.00;;;6.70;;
3627;SDS011;1830;49.000;12.074;2022-11-20T12:33:52;10.23;;;5.20;;
3627;SDS011;1830;49.000;12.074;2022-11-20T12:39:49;9.60;;;5.87;;
3627;SDS011;1830;49.000;12.074;2022-11-20T12:42:30;9.20;;;6.80;;
3627;SDS011;1830;49.000;12.074;2022-11-20T12:48:38;9.80;;;6.50;;
3627;SDS011;1830;49.000;12.074;2022-11-20T12:51:35;8.83;;;6.90;;
3627;SDS011;1830;49.000;12.074;2022-11-20T12:54:25;6.40;;;5.60;;
3627;SDS011;1830;49.000;12.074;2022-11-20T12:57:06;10.63;;;7.40;;
3627;SDS011;1830;49.000;12.074;2022-11-20T12:59:49;8.50;;;7.23;;
3627;SDS011;1830;49.000;12.074;2022-11-20T13:02:27;7.17;;;6.03;;
3627;SDS011;1830;49.000;12.074;2022-11-20T13:05:08;7.93;;;6.47;;
3627;SDS011;1830;49.000;12.074;2022-11-20T13:07:47;13.57;;;9.57;;
3627;SDS011;1830;49.000;12.074;2022-11-20T13:10:21;9.23;;;7.43;;
3627;SDS011;1830;49.000;12.074;2022-11-20T13:12:59;7.30;;;6.47;;
3627;SDS011;1830;49.000;12.074;2022-11-20T13:15:34;6.10;;;5.50;;
3627;SDS011;1830;49.000;12.074;2022-11-20T13:18:10;18.60;;;9.30;;
3627;SDS011;1830;49.000;12.074;2022-11-20T13:20:41;10.97;;;7.70;;
3627;SDS011;1830;49.000;12.074;2022-11-20T13:23:09;11.60;;;6.57;;
3627;SDS011;1830;49.000;12.074;2022-11-20T13:25:38;6.90;;;5.47;;
3627;SDS011;1830;49.000;12.074;2022-11-20T13:30:54;9.87;;;7.40;;
3627;SDS011;1830;49.000;12.074;2022-11-20T13:33:23;8.00;;;6.63;;
3627;SDS011;1830;49.000;12.074;2022-11-20T13:35:55;9.20;;;6.53;;
3627;SDS011;1830;49.000;12.074;2022-11-20T13:38:26;7.00;;;6.03;;
3627;SDS011;1830;49.000;12.074;2022-11-20T13:40:55;9.60;;;6.80;;
3627;SDS011;1830;49.000;12.074;2022-11-20T13:43:27;8.00;;;6.27;;
3627;SDS011;1830;49.000;12.074;2022-11-20T13:46:00;7.30;;;5.13;;
3627;SDS011;1830;49.000;12.074;2022-11-20T13:48:29;8.80;;;5.90;;
3627;SDS011;1830;49.000;12.074;2022-11-20T13:51:15;6.93;;;6.23;;
3627;SDS011;1830;49.000;12.074;2022-11-20T13:53:57;9.50;;;6.77;;
3627;SDS011;1830;49.000;12.074;2022-11-20T13:56:52;6.70;;;6.10;;
3627;SDS011;1830;49.000;12.074;2022-11-20T13:59:35;7.03;;;5.97;;
3627;SDS011;1830;49.000;12.074;2022-11-20T14:02:10;13.60;;;5.53;;
3627;SDS011;1830;49.000;12.074;2022-11-20T14:04:42;10.40;;;8.37;;
3627;SDS011;1830;49.000;12.074;2022-11-20T14:07:12;11.27;;;6.90;;
3627;SDS011;1830;49.000;12.074;2022-11-20T14:09:48;13.93;;;7.20;;
3627;SDS011;1830;49.000;12.074;2022-11-20T14:12:19;9.93;;;7.37;;
3627;SDS011;1830;49.000;12.074;2022-11-20T14:14:48;11.80;;;8.73;;
3627;SDS011;1830;49.000;12.074;2022-11-20T14:17:18;10.53;;;9.43;;
3627;SDS011;1830;49.000;12.074;2022-11-20T14:19:46;9.40;;;7.67;;
3627;SDS011;1830;49.000;12.074;2022-11-20T14:22:19;8.57;;;7.57;;
3627;SDS011;1830;49.000;12.074;2022-11-20T14:24:48;8.70;;;7.77;;
3627;SDS011;1830;49.000;12.074;2022-11-20T14:27:27;9.40;;;7.93;;
3627;SDS011;1830;49.000;12.074;2022-11-20T14:29:54;11.70;;;10.40;;
3627;SDS011;1830;49.000;12.074;2022-11-20T14:32:22;16.13;;;12.27;;
3627;SDS011;1830;49.000;12.074;2022-11-20T14:34:54;13.60;;;11.20;;
3627;SDS011;1830;49.000;12.074;2022-11-20T14:37:30;17.83;;;8.10;;
3627;SDS011;1830;49.000;12.074;2022-11-20T14:40:02;7.60;;;5.70;;
3627;SDS011;1830;49.000;12.074;2022-11-20T14:42:33;11.27;;;6.47;;
3627;SDS011;1830;49.000;12.074;2022-11-20T14:45:02;8.57;;;6.67;;
3627;SDS011;1830;49.000;12.074;2022-11-20T14:47:30;11.17;;;7.90;;
3627;SDS011;1830;49.000;12.074;2022-11-20T14:49:58;11.10;;;8.33;;
3627;SDS011;1830;49.000;12.074;2022-11-20T14:52:27;10.40;;;7.80;;
3627;SDS011;1830;49.000;12.074;2022-11-20T14:54:56;10.77;;;7.97;;
3627;SDS011;1830;49.000;12.074;2022-11-20T14:57:25;7.53;;;6.27;;
3627;SDS011;1830;49.000;12.074;2022-11-20T15:00:17;12.80;;;8.80;;
3627;SDS011;1830;49.000;12.074;2022-11-20T15:02:56;12.10;;;7.23;;
3627;SDS011;1830;49.000;12.074;2022-11-20T15:05:24;14.30;;;9.30;;
3627;SDS011;1830;49.000;12.074;2022-11-20T15:08:04;7.40;;;5.97;;
3627;SDS011;1830;49.000;12.074;2022-11-20T15:10:35;8.30;;;5.70;;
3627;SDS011;1830;49.000;12.074;2022-11-20T15:13:04;6.43;;;5.13;;
3627;SDS011;1830;49.000;12.074;2022-11-20T15:15:39;6.97;;;6.00;;
3627;SDS011;1830;49.000;12.074;2022-11-20T15:18:10;6.43;;;5.57;;
3627;SDS011;1830;49.000;12.074;2022-11-20T15:20:38;7.00;;;5.90;;
3627;SDS011;1830;49.000;12.074;2022-11-20T15:23:08;6.10;;;4.50;;
3627;SDS011;1830;49.000;12.074;2022-11-20T15:25:37;4.93;;;4.13;;
3627;SDS011;1830;49.000;12.074;2022-11-20T15:28:04;6.33;;;5.27;;
3627;SDS011;1830;49.000;12.074;2022-11-20T15:30:43;7.23;;;5.27;;
3627;SDS011;1830;49.000;12.074;2022-11-20T15:33:10;6.63;;;5.30;;
3627;SDS011;1830;49.000;12.074;2022-11-20T15:35:37;6.97;;;3.77;;
3627;SDS011;1830;49.000;12.074;2022-11-20T15:38:04;4.70;;;3.77;;
3627;SDS011;1830;49.000;12.074;2022-11-20T15:40:31;6.17;;;4.93;;
3627;SDS011;1830;49.000;12.074;2022-11-20T15:42:58;5.27;;;4.57;;
3627;SDS011;1830;49.000;12.074;2022-11-20T15:45:33;7.87;;;5.33;;
3627;SDS011;1830;49.000;12.074;2022-11-20T15:48:07;7.73;;;5.73;;
3627;SDS011;1830;49.000;12.074;2022-11-20T15:50:39;5.57;;;4.47;;
3627;SDS011;1830;49.000;12.074;2022-11-20T15:53:12;4.80;;;4.30;;
3627;SDS011;1830;49.000;12.074;2022-11-20T15:55:39;6.10;;;5.50;;
3627;SDS011;1830;49.000;12.074;2022-11-20T15:58:06;6.80;;;6.10;;
3627;SDS011;1830;49.000;12.074;2022-11-20T16:00:33;12.20;;;10.90;;
3627;SDS011;1830;49.000;12.074;2022-11-20T16:03:00;8.23;;;5.80;;
3627;SDS011;1830;49.000;12.074;2022-11-20T16:05:29;7.80;;;4.60;;
3627;SDS011;1830;49.000;12.074;2022-11-20T16:07:56;6.47;;;5.40;;
3627;SDS011;1830;49.000;12.074;2022-11-20T16:10:23;14.50;;;11.00;;
3627;SDS011;1830;49.000;12.074;2022-11-20T16:12:52;18.23;;;10.90;;
3627;SDS011;1830;49.000;12.074;2022-11-20T16:15:36;23.77;;;16.80;;
3627;SDS011;1830;49.000;12.074;2022-11-20T16:18:13;7.90;;;6.90;;
3627;SDS011;1830;49.000;12.074;2022-11-20T16:20:43;13.23;;;10.43;;
3627;SDS011;1830;49.000;12.074;2022-11-20T16:23:10;12.43;;;9.90;;
3627;SDS011;1830;49.000;12.074;2022-11-20T16:25:43;87.37;;;39.87;;
3627;SDS011;1830;49.000;12.074;2022-11-20T16:28:11;14.63;;;9.70;;
3627;SDS011;1830;49.000;12.074;2022-11-20T16:30:38;17.20;;;10.77;;
3627;SDS011;1830;49.000;12.074;2022-11-20T16:33:08;34.97;;;21.10;;
3627;SDS011;1830;49.000;12.074;2022-11-20T16:35:36;40.83;;;28.80;;
3627;SDS011;1830;49.000;12.074;2022-11-20T16:38:05;13.47;;;9.37;;
3627;SDS011;1830;49.000;12.074;2022-11-20T16:40:32;11.07;;;7.30;;
3627;SDS011;1830;49.000;12.074;2022-11-20T16:42:59;10.70;;;7.40;;
3627;SDS011;1830;49.000;12.074;2022-11-20T16:45:34;10.80;;;8.33;;
3627;SDS011;1830;49.000;12.074;2022-11-20T16:48:05;12.20;;;7.87;;
3627;SDS011;1830;49.000;12.074;2022-11-20T16:50:32;10.47;;;8.27;;
3627;SDS011;1830;49.000;12.074;2022-11-20T16:52:59;28.00;;;17.93;;
3627;SDS011;1830;49.000;12.074;2022-11-20T16:55:27;20.17;;;11.30;;
3627;SDS011;1830;49.000;12.074;2022-11-20T16:57:54;9.97;;;8.40;;
3627;SDS011;1830;49.000;12.074;2022-11-20T17:00:21;14.10;;;10.00;;
3627;SDS011;1830;49.000;12.074;2022-11-20T17:02:47;18.20;;;14.10;;
3627;SDS011;1830;49.000;12.074;2022-11-20T17:05:14;23.93;;;13.90;;
3627;SDS011;1830;49.000;12.074;2022-11-20T17:07:41;19.37;;;14.17;;
3627;SDS011;1830;49.000;12.074;2022-11-20T17:10:08;22.53;;;15.03;;
3627;SDS011;1830;49.000;12.074;2022-11-20T17:12:37;17.27;;;13.20;;
3627;SDS011;1830;49.000;12.074;2022-11-20T17:15:04;18.40;;;13.83;;
3627;SDS011;1830;49.000;12.074;2022-11-20T17:17:32;15.00;;;12.43;;
3627;SDS011;1830;49.000;12.074;2022-11-20T17:19:58;23.30;;;13.30;;
3627;SDS011;1830;49.000;12.074;2022-11-20T17:22:28;14.77;;;11.50;;
3627;SDS011;1830;49.000;12.074;2022-11-20T17:24:57;15.83;;;12.73;;
3627;SDS011;1830;49.000;12.074;2022-11-20T17:27:23;16.70;;;12.60;;
3627;SDS011;1830;49.000;12.074;2022-11-20T17:29:52;19.60;;;13.20;;
3627;SDS011;1830;49.000;12.074;2022-11-20T17:32:21;27.83;;;13.00;;
3627;SDS011;1830;49.000;12.074;2022-11-20T17:34:48;21.20;;;15.70;;
3627;SDS011;1830;49.000;12.074;2022-11-20T17:37:14;22.80;;;16.00;;
3627;SDS011;1830;49.000;12.074;2022-11-20T17:39:41;28.73;;;17.90;;
3627;SDS011;1830;49.000;12.074;2022-11-20T17:42:09;22.83;;;16.23;;
3627;SDS011;1830;49.000;12.074;2022-11-20T17:45:02;24.47;;;18.00;;
3627;SDS011;1830;49.000;12.074;2022-11-20T17:47:29;29.03;;;18.00;;
3627;SDS011;1830;49.000;12.074;2022-11-20T17:49:56;28.00;;;17.97;;
3627;SDS011;1830;49.000;12.074;2022-11-20T17:52:23;32.17;;;23.23;;
3627;SDS011;1830;49.000;12.074;2022-11-20T17:54:50;33.27;;;23.23;;
3627;SDS011;1830;49.000;12.074;2022-11-20T17:57:20;48.50;;;30.87;;
3627;SDS011;1830;49.000;12.074;2022-11-20T18:00:06;42.43;;;28.77;;
